sensor_id;sensor_type;location;lat;lon;timestamp;P1;durP1;ratioP1;P2;durP2;ratioP2
59052;SDS011;44843;44.728;10.396;2022-09-01T00:00:21;9.05;;;5.90;;
59052;SDS011;44843;44.728;10.396;2022-09-01T00:02:47;6.20;;;5.60;;
59052;SDS011;44843;44.728;10.396;2022-09-01T00:05:14;11.85;;;5.75;;
59052;SDS011;44843;44.728;10.396;2022-09-01T00:07:40;6.93;;;6.05;;
59052;SDS011;44843;44.728;10.396;2022-09-01T00:10:06;8.20;;;7.00;;
59052;SDS011;44843;44.728;10.396;2022-09-01T00:12:32;10.50;;;8.30;;
59052;SDS011;44843;44.728;10.396;2022-09-01T00:14:58;10.50;;;9.02;;
59052;SDS011;44843;44.728;10.396;2022-09-01T00:17:23;12.93;;;10.15;;
59052;SDS011;44843;44.728;10.396;2022-09-01T00:19:49;11.25;;;10.02;;
59052;SDS011;44843;44.728;10.396;2022-09-01T00:22:15;12.88;;;9.52;;
59052;SDS011;44843;44.728;10.396;2022-09-01T00:24:40;11.88;;;9.90;;
59052;SDS011;44843;44.728;10.396;2022-09-01T00:27:06;14.75;;;10.82;;
59052;SDS011;44843;44.728;10.396;2022-09-01T00:29:31;15.27;;;11.27;;
59052;SDS011;44843;44.728;10.396;2022-09-01T00:31:57;12.10;;;9.90;;
59052;SDS011;44843;44.728;10.396;2022-09-01T00:34:23;12.38;;;10.35;;
59052;SDS011;44843;44.728;10.396;2022-09-01T00:36:48;13.40;;;10.77;;
59052;SDS011;44843;44.728;10.396;2022-09-01T00:39:14;15.48;;;11.05;;
59052;SDS011;44843;44.728;10.396;2022-09-01T00:41:40;15.90;;;11.23;;
59052;SDS011;44843;44.728;10.396;2022-09-01T00:44:09;14.02;;;11.07;;
59052;SDS011;44843;44.728;10.396;2022-09-01T00:46:38;14.10;;;11.65;;
59052;SDS011;44843;44.728;10.396;2022-09-01T00:49:20;14.13;;;11.73;;
59052;SDS011;44843;44.728;10.396;2022-09-01T00:51:52;15.15;;;12.38;;
59052;SDS011;44843;44.728;10.396;2022-09-01T00:54:24;15.38;;;12.38;;
59052;SDS011;44843;44.728;10.396;2022-09-01T00:56:53;16.15;;;11.57;;
59052;SDS011;44843;44.728;10.396;2022-09-01T00:59:20;16.30;;;12.52;;
59052;SDS011;44843;44.728;10.396;2022-09-01T01:01:48;15.82;;;11.98;;
59052;SDS011;44843;44.728;10.396;2022-09-01T01:04:13;14.00;;;11.85;;
59052;SDS011;44843;44.728;10.396;2022-09-01T01:06:40;14.23;;;10.63;;
59052;SDS011;44843;44.728;10.396;2022-09-01T01:09:07;13.35;;;9.88;;
59052;SDS011;44843;44.728;10.396;2022-09-01T01:11:33;13.82;;;10.07;;
59052;SDS011;44843;44.728;10.396;2022-09-01T01:16:34;24.20;;;12.63;;
59052;SDS011;44843;44.728;10.396;2022-09-01T01:19:00;19.80;;;11.45;;
59052;SDS011;44843;44.728;10.396;2022-09-01T01:21:32;27.40;;;11.85;;
59052;SDS011;44843;44.728;10.396;2022-09-01T01:24:35;26.77;;;14.23;;
59052;SDS011;44843;44.728;10.396;2022-09-01T01:27:00;19.20;;;12.05;;
59052;SDS011;44843;44.728;10.396;2022-09-01T01:29:31;18.00;;;12.45;;
59052;SDS011;44843;44.728;10.396;2022-09-01T01:31:58;19.20;;;14.02;;
59052;SDS011;44843;44.728;10.396;2022-09-01T01:34:24;22.52;;;14.38;;
59052;SDS011;44843;44.728;10.396;2022-09-01T01:36:50;24.65;;;13.60;;
59052;SDS011;44843;44.728;10.396;2022-09-01T01:39:17;21.73;;;14.13;;
59052;SDS011;44843;44.728;10.396;2022-09-01T01:41:49;20.48;;;14.23;;
59052;SDS011;44843;44.728;10.396;2022-09-01T01:44:17;20.05;;;13.50;;
59052;SDS011;44843;44.728;10.396;2022-09-01T01:46:46;21.00;;;13.95;;
59052;SDS011;44843;44.728;10.396;2022-09-01T01:49:18;21.92;;;15.23;;
59052;SDS011;44843;44.728;10.396;2022-09-01T01:51:49;20.33;;;14.23;;
59052;SDS011;44843;44.728;10.396;2022-09-01T01:54:22;21.23;;;13.88;;
59052;SDS011;44843;44.728;10.396;2022-09-01T01:56:48;19.65;;;14.25;;
59052;SDS011;44843;44.728;10.396;2022-09-01T01:59:14;21.25;;;13.60;;
59052;SDS011;44843;44.728;10.396;2022-09-01T02:01:41;20.58;;;14.18;;
59052;SDS011;44843;44.728;10.396;2022-09-01T02:04:09;21.63;;;13.52;;
59052;SDS011;44843;44.728;10.396;2022-09-01T02:06:35;19.42;;;12.73;;
59052;SDS011;44843;44.728;10.396;2022-09-01T02:09:05;18.27;;;13.68;;
59052;SDS011;44843;44.728;10.396;2022-09-01T02:11:31;17.60;;;12.73;;
59052;SDS011;44843;44.728;10.396;2022-09-01T02:13:58;19.95;;;13.15;;
59052;SDS011;44843;44.728;10.396;2022-09-01T02:16:25;17.52;;;12.45;;
59052;SDS011;44843;44.728;10.396;2022-09-01T02:18:53;16.60;;;12.90;;
59052;SDS011;44843;44.728;10.396;2022-09-01T02:21:20;22.70;;;13.40;;
59052;SDS011;44843;44.728;10.396;2022-09-01T02:23:49;17.67;;;12.75;;
59052;SDS011;44843;44.728;10.396;2022-09-01T02:26:28;16.50;;;14.13;;
59052;SDS011;44843;44.728;10.396;2022-09-01T02:29:03;20.35;;;14.15;;
59052;SDS011;44843;44.728;10.396;2022-09-01T02:31:42;16.38;;;13.00;;
59052;SDS011;44843;44.728;10.396;2022-09-01T02:34:08;16.20;;;13.02;;
59052;SDS011;44843;44.728;10.396;2022-09-01T02:36:37;14.82;;;12.35;;
59052;SDS011;44843;44.728;10.396;2022-09-01T02:39:14;18.45;;;14.30;;
59052;SDS011;44843;44.728;10.396;2022-09-01T02:41:47;17.40;;;13.65;;
59052;SDS011;44843;44.728;10.396;2022-09-01T02:44:13;20.40;;;13.40;;
59052;SDS011;44843;44.728;10.396;2022-09-01T02:46:40;17.13;;;12.68;;
59052;SDS011;44843;44.728;10.396;2022-09-01T02:49:10;15.45;;;12.85;;
59052;SDS011;44843;44.728;10.396;2022-09-01T02:51:42;22.20;;;14.02;;
59052;SDS011;44843;44.728;10.396;2022-09-01T02:54:09;16.65;;;13.05;;
59052;SDS011;44843;44.728;10.396;2022-09-01T02:56:40;15.45;;;11.05;;
59052;SDS011;44843;44.728;10.396;2022-09-01T02:59:06;15.77;;;10.82;;
59052;SDS011;44843;44.728;10.396;2022-09-01T03:01:35;15.57;;;11.13;;
59052;SDS011;44843;44.728;10.396;2022-09-01T03:04:02;13.40;;;10.57;;
59052;SDS011;44843;44.728;10.396;2022-09-01T03:06:29;13.93;;;11.18;;
59052;SDS011;44843;44.728;10.396;2022-09-01T03:08:58;13.90;;;10.70;;
59052;SDS011;44843;44.728;10.396;2022-09-01T03:11:24;12.48;;;10.60;;
59052;SDS011;44843;44.728;10.396;2022-09-01T03:13:51;13.63;;;10.57;;
59052;SDS011;44843;44.728;10.396;2022-09-01T03:16:18;13.90;;;10.10;;
59052;SDS011;44843;44.728;10.396;2022-09-01T03:18:43;13.13;;;10.60;;
59052;SDS011;44843;44.728;10.396;2022-09-01T03:21:09;13.93;;;9.88;;
59052;SDS011;44843;44.728;10.396;2022-09-01T03:23:39;16.50;;;10.40;;
59052;SDS011;44843;44.728;10.396;2022-09-01T03:26:04;12.32;;;9.63;;
59052;SDS011;44843;44.728;10.396;2022-09-01T03:28:29;15.80;;;10.35;;
59052;SDS011;44843;44.728;10.396;2022-09-01T03:30:56;15.18;;;10.40;;
59052;SDS011;44843;44.728;10.396;2022-09-01T03:33:23;13.48;;;10.18;;
59052;SDS011;44843;44.728;10.396;2022-09-01T03:35:50;15.57;;;10.88;;
59052;SDS011;44843;44.728;10.396;2022-09-01T03:38:17;14.35;;;10.02;;
59052;SDS011;44843;44.728;10.396;2022-09-01T03:40:46;13.85;;;10.48;;
59052;SDS011;44843;44.728;10.396;2022-09-01T03:43:15;13.23;;;9.85;;
59052;SDS011;44843;44.728;10.396;2022-09-01T03:45:41;15.98;;;10.20;;
59052;SDS011;44843;44.728;10.396;2022-09-01T03:48:07;13.00;;;9.63;;
59052;SDS011;44843;44.728;10.396;2022-09-01T03:50:34;13.00;;;10.15;;
59052;SDS011;44843;44.728;10.396;2022-09-01T03:53:05;12.50;;;11.07;;
59052;SDS011;44843;44.728;10.396;2022-09-01T03:55:32;13.73;;;10.57;;
59052;SDS011;44843;44.728;10.396;2022-09-01T03:58:00;18.77;;;11.45;;
59052;SDS011;44843;44.728;10.396;2022-09-01T04:00:35;14.13;;;10.60;;
59052;SDS011;44843;44.728;10.396;2022-09-01T04:03:04;13.43;;;10.20;;
59052;SDS011;44843;44.728;10.396;2022-09-01T04:05:31;13.15;;;10.45;;
59052;SDS011;44843;44.728;10.396;2022-09-01T04:07:59;13.68;;;10.73;;
59052;SDS011;44843;44.728;10.396;2022-09-01T04:10:28;15.93;;;11.38;;
59052;SDS011;44843;44.728;10.396;2022-09-01T04:12:56;13.27;;;10.55;;
59052;SDS011;44843;44.728;10.396;2022-09-01T04:15:23;15.55;;;11.05;;
59052;SDS011;44843;44.728;10.396;2022-09-01T04:17:49;13.32;;;11.10;;
59052;SDS011;44843;44.728;10.396;2022-09-01T04:20:35;15.52;;;11.77;;
59052;SDS011;44843;44.728;10.396;2022-09-01T04:25:58;14.43;;;11.57;;
59052;SDS011;44843;44.728;10.396;2022-09-01T04:28:33;15.73;;;11.70;;
59052;SDS011;44843;44.728;10.396;2022-09-01T04:31:02;16.17;;;12.40;;
59052;SDS011;44843;44.728;10.396;2022-09-01T04:33:33;17.55;;;12.02;;
59052;SDS011;44843;44.728;10.396;2022-09-01T04:36:22;17.90;;;12.27;;
59052;SDS011;44843;44.728;10.396;2022-09-01T04:38:51;14.10;;;11.60;;
59052;SDS011;44843;44.728;10.396;2022-09-01T04:41:20;16.73;;;11.70;;
59052;SDS011;44843;44.728;10.396;2022-09-01T04:43:50;19.38;;;11.98;;
59052;SDS011;44843;44.728;10.396;2022-09-01T04:46:17;15.80;;;11.63;;
59052;SDS011;44843;44.728;10.396;2022-09-01T04:48:45;16.77;;;10.98;;
59052;SDS011;44843;44.728;10.396;2022-09-01T04:51:11;16.58;;;11.80;;
59052;SDS011;44843;44.728;10.396;2022-09-01T04:53:39;19.83;;;12.00;;
59052;SDS011;44843;44.728;10.396;2022-09-01T04:56:07;17.95;;;12.25;;
59052;SDS011;44843;44.728;10.396;2022-09-01T04:58:34;13.98;;;10.88;;
59052;SDS011;44843;44.728;10.396;2022-09-01T05:01:01;14.68;;;11.90;;
59052;SDS011;44843;44.728;10.396;2022-09-01T05:03:30;16.40;;;12.32;;
59052;SDS011;44843;44.728;10.396;2022-09-01T05:05:56;16.65;;;12.23;;
59052;SDS011;44843;44.728;10.396;2022-09-01T05:08:25;17.92;;;12.32;;
59052;SDS011;44843;44.728;10.396;2022-09-01T05:10:51;14.23;;;10.90;;
59052;SDS011;44843;44.728;10.396;2022-09-01T05:13:19;15.18;;;11.98;;
59052;SDS011;44843;44.728;10.396;2022-09-01T05:15:47;17.95;;;11.55;;
59052;SDS011;44843;44.728;10.396;2022-09-01T05:18:25;15.65;;;10.48;;
59052;SDS011;44843;44.728;10.396;2022-09-01T05:20:52;13.27;;;10.10;;
59052;SDS011;44843;44.728;10.396;2022-09-01T05:23:19;10.63;;;9.52;;
59052;SDS011;44843;44.728;10.396;2022-09-01T05:25:46;12.02;;;9.60;;
59052;SDS011;44843;44.728;10.396;2022-09-01T05:28:16;11.90;;;10.25;;
59052;SDS011;44843;44.728;10.396;2022-09-01T05:30:43;14.98;;;11.65;;
59052;SDS011;44843;44.728;10.396;2022-09-01T05:33:11;15.32;;;11.30;;
59052;SDS011;44843;44.728;10.396;2022-09-01T05:35:40;15.85;;;11.68;;
59052;SDS011;44843;44.728;10.396;2022-09-01T05:38:10;15.43;;;11.23;;
59052;SDS011;44843;44.728;10.396;2022-09-01T05:40:41;17.33;;;12.88;;
59052;SDS011;44843;44.728;10.396;2022-09-01T05:43:11;18.48;;;11.98;;
59052;SDS011;44843;44.728;10.396;2022-09-01T05:45:39;15.27;;;10.55;;
59052;SDS011;44843;44.728;10.396;2022-09-01T05:48:09;14.57;;;11.07;;
59052;SDS011;44843;44.728;10.396;2022-09-01T05:50:38;17.63;;;10.80;;
59052;SDS011;44843;44.728;10.396;2022-09-01T05:53:07;14.32;;;11.18;;
59052;SDS011;44843;44.728;10.396;2022-09-01T05:55:39;16.27;;;11.55;;
59052;SDS011;44843;44.728;10.396;2022-09-01T05:58:07;18.95;;;11.32;;
59052;SDS011;44843;44.728;10.396;2022-09-01T06:00:37;15.65;;;11.68;;
59052;SDS011;44843;44.728;10.396;2022-09-01T06:03:04;15.98;;;11.40;;
59052;SDS011;44843;44.728;10.396;2022-09-01T06:05:33;13.73;;;10.32;;
59052;SDS011;44843;44.728;10.396;2022-09-01T06:08:00;18.33;;;10.93;;
59052;SDS011;44843;44.728;10.396;2022-09-01T06:10:26;16.98;;;11.25;;
59052;SDS011;44843;44.728;10.396;2022-09-01T06:12:52;13.93;;;10.63;;
59052;SDS011;44843;44.728;10.396;2022-09-01T06:15:17;19.00;;;10.52;;
59052;SDS011;44843;44.728;10.396;2022-09-01T06:17:44;15.48;;;10.88;;
59052;SDS011;44843;44.728;10.396;2022-09-01T06:20:11;14.80;;;10.75;;
59052;SDS011;44843;44.728;10.396;2022-09-01T06:22:36;15.82;;;10.77;;
59052;SDS011;44843;44.728;10.396;2022-09-01T06:25:02;13.95;;;10.73;;
59052;SDS011;44843;44.728;10.396;2022-09-01T06:27:31;14.57;;;11.27;;
59052;SDS011;44843;44.728;10.396;2022-09-01T06:29:57;16.80;;;12.13;;
59052;SDS011;44843;44.728;10.396;2022-09-01T06:32:23;16.73;;;11.25;;
59052;SDS011;44843;44.728;10.396;2022-09-01T06:34:49;17.65;;;11.32;;
59052;SDS011;44843;44.728;10.396;2022-09-01T06:37:15;20.60;;;11.07;;
59052;SDS011;44843;44.728;10.396;2022-09-01T06:39:41;14.75;;;11.55;;
59052;SDS011;44843;44.728;10.396;2022-09-01T06:42:08;15.07;;;12.23;;
59052;SDS011;44843;44.728;10.396;2022-09-01T06:44:35;17.50;;;12.25;;
59052;SDS011;44843;44.728;10.396;2022-09-01T06:47:00;16.00;;;12.10;;
59052;SDS011;44843;44.728;10.396;2022-09-01T06:49:26;16.42;;;12.50;;
59052;SDS011;44843;44.728;10.396;2022-09-01T06:51:59;18.77;;;12.98;;
59052;SDS011;44843;44.728;10.396;2022-09-01T06:54:27;17.50;;;12.38;;
59052;SDS011;44843;44.728;10.396;2022-09-01T06:56:58;19.77;;;13.35;;
59052;SDS011;44843;44.728;10.396;2022-09-01T06:59:26;17.40;;;13.23;;
59052;SDS011;44843;44.728;10.396;2022-09-01T07:01:54;14.98;;;12.35;;
59052;SDS011;44843;44.728;10.396;2022-09-01T07:04:23;19.73;;;12.55;;
59052;SDS011;44843;44.728;10.396;2022-09-01T07:06:51;22.52;;;12.50;;
59052;SDS011;44843;44.728;10.396;2022-09-01T07:09:17;18.35;;;12.30;;
59052;SDS011;44843;44.728;10.396;2022-09-01T07:11:43;17.95;;;13.00;;
59052;SDS011;44843;44.728;10.396;2022-09-01T07:14:09;19.23;;;12.98;;
59052;SDS011;44843;44.728;10.396;2022-09-01T07:16:35;23.33;;;14.23;;
59052;SDS011;44843;44.728;10.396;2022-09-01T07:19:05;20.13;;;13.88;;
59052;SDS011;44843;44.728;10.396;2022-09-01T07:21:39;20.20;;;14.35;;
59052;SDS011;44843;44.728;10.396;2022-09-01T07:24:06;24.55;;;15.73;;
59052;SDS011;44843;44.728;10.396;2022-09-01T07:26:32;22.20;;;14.38;;
59052;SDS011;44843;44.728;10.396;2022-09-01T07:29:03;19.17;;;14.10;;
59052;SDS011;44843;44.728;10.396;2022-09-01T07:31:32;21.02;;;14.55;;
59052;SDS011;44843;44.728;10.396;2022-09-01T07:34:01;21.15;;;14.18;;
59052;SDS011;44843;44.728;10.396;2022-09-01T07:36:29;18.10;;;13.63;;
59052;SDS011;44843;44.728;10.396;2022-09-01T07:38:56;20.15;;;13.10;;
59052;SDS011;44843;44.728;10.396;2022-09-01T07:41:22;20.73;;;13.10;;
59052;SDS011;44843;44.728;10.396;2022-09-01T07:43:49;18.25;;;12.70;;
59052;SDS011;44843;44.728;10.396;2022-09-01T07:46:20;18.95;;;13.07;;
59052;SDS011;44843;44.728;10.396;2022-09-01T07:48:47;15.30;;;12.05;;
59052;SDS011;44843;44.728;10.396;2022-09-01T07:51:15;17.08;;;12.48;;
59052;SDS011;44843;44.728;10.396;2022-09-01T07:53:43;18.42;;;12.25;;
59052;SDS011;44843;44.728;10.396;2022-09-01T07:56:09;16.52;;;12.95;;
59052;SDS011;44843;44.728;10.396;2022-09-01T07:58:36;15.65;;;12.13;;
59052;SDS011;44843;44.728;10.396;2022-09-01T08:01:11;16.33;;;11.93;;
59052;SDS011;44843;44.728;10.396;2022-09-01T08:03:43;15.75;;;10.88;;
59052;SDS011;44843;44.728;10.396;2022-09-01T08:06:22;11.43;;;9.23;;
59052;SDS011;44843;44.728;10.396;2022-09-01T08:08:50;12.05;;;9.90;;
59052;SDS011;44843;44.728;10.396;2022-09-01T08:11:18;13.82;;;10.20;;
59052;SDS011;44843;44.728;10.396;2022-09-01T08:13:49;13.23;;;9.45;;
59052;SDS011;44843;44.728;10.396;2022-09-01T08:16:15;18.92;;;11.65;;
59052;SDS011;44843;44.728;10.396;2022-09-01T08:18:41;12.48;;;10.88;;
59052;SDS011;44843;44.728;10.396;2022-09-01T08:21:08;14.10;;;11.27;;
59052;SDS011;44843;44.728;10.396;2022-09-01T08:23:36;16.10;;;11.23;;
59052;SDS011;44843;44.728;10.396;2022-09-01T08:26:09;13.27;;;10.95;;
59052;SDS011;44843;44.728;10.396;2022-09-01T08:28:37;14.52;;;11.15;;
59052;SDS011;44843;44.728;10.396;2022-09-01T08:31:07;13.63;;;10.45;;
59052;SDS011;44843;44.728;10.396;2022-09-01T08:33:34;16.50;;;10.70;;
59052;SDS011;44843;44.728;10.396;2022-09-01T08:36:00;14.45;;;10.82;;
59052;SDS011;44843;44.728;10.396;2022-09-01T08:38:26;11.73;;;8.07;;
59052;SDS011;44843;44.728;10.396;2022-09-01T08:40:53;10.13;;;6.93;;
59052;SDS011;44843;44.728;10.396;2022-09-01T08:43:23;8.63;;;6.63;;
59052;SDS011;44843;44.728;10.396;2022-09-01T08:46:02;7.25;;;5.82;;
59052;SDS011;44843;44.728;10.396;2022-09-01T08:48:52;9.80;;;7.40;;
59052;SDS011;44843;44.728;10.396;2022-09-01T08:57:04;13.10;;;9.23;;
59052;SDS011;44843;44.728;10.396;2022-09-01T08:59:38;11.82;;;9.57;;
59052;SDS011;44843;44.728;10.396;2022-09-01T09:10:31;15.07;;;10.57;;
59052;SDS011;44843;44.728;10.396;2022-09-01T09:15:43;11.57;;;9.05;;
59052;SDS011;44843;44.728;10.396;2022-09-01T09:18:36;15.38;;;10.07;;
59052;SDS011;44843;44.728;10.396;2022-09-01T09:21:28;17.13;;;11.57;;
59052;SDS011;44843;44.728;10.396;2022-09-01T09:24:12;12.82;;;10.18;;
59052;SDS011;44843;44.728;10.396;2022-09-01T09:26:39;14.30;;;9.73;;
59052;SDS011;44843;44.728;10.396;2022-09-01T09:29:05;10.68;;;8.45;;
59052;SDS011;44843;44.728;10.396;2022-09-01T09:34:14;10.40;;;8.52;;
59052;SDS011;44843;44.728;10.396;2022-09-01T09:36:56;11.55;;;9.25;;
59052;SDS011;44843;44.728;10.396;2022-09-01T09:39:25;8.45;;;7.50;;
59052;SDS011;44843;44.728;10.396;2022-09-01T09:42:01;10.90;;;8.38;;
59052;SDS011;44843;44.728;10.396;2022-09-01T09:44:33;9.50;;;8.40;;
59052;SDS011;44843;44.728;10.396;2022-09-01T09:52:40;12.88;;;9.32;;
59052;SDS011;44843;44.728;10.396;2022-09-01T09:55:24;6.97;;;5.95;;
59052;SDS011;44843;44.728;10.396;2022-09-01T09:57:53;4.82;;;3.45;;
59052;SDS011;44843;44.728;10.396;2022-09-01T10:00:28;7.00;;;5.85;;
59052;SDS011;44843;44.728;10.396;2022-09-01T10:03:00;9.43;;;6.63;;
59052;SDS011;44843;44.728;10.396;2022-09-01T10:05:33;4.35;;;3.83;;
59052;SDS011;44843;44.728;10.396;2022-09-01T10:08:13;4.50;;;3.25;;
59052;SDS011;44843;44.728;10.396;2022-09-01T10:10:46;4.95;;;3.20;;
59052;SDS011;44843;44.728;10.396;2022-09-01T10:13:20;3.50;;;3.20;;
59052;SDS011;44843;44.728;10.396;2022-09-01T10:15:52;5.35;;;3.75;;
59052;SDS011;44843;44.728;10.396;2022-09-01T10:18:22;7.95;;;4.53;;
59052;SDS011;44843;44.728;10.396;2022-09-01T10:20:53;4.53;;;4.03;;
59052;SDS011;44843;44.728;10.396;2022-09-01T10:23:24;5.90;;;4.53;;
59052;SDS011;44843;44.728;10.396;2022-09-01T10:25:52;4.85;;;3.92;;
59052;SDS011;44843;44.728;10.396;2022-09-01T10:28:24;5.03;;;3.53;;
59052;SDS011;44843;44.728;10.396;2022-09-01T10:30:52;3.88;;;2.80;;
59052;SDS011;44843;44.728;10.396;2022-09-01T10:33:21;4.20;;;3.03;;
59052;SDS011;44843;44.728;10.396;2022-09-01T10:35:50;2.78;;;2.15;;
59052;SDS011;44843;44.728;10.396;2022-09-01T10:38:24;2.60;;;2.00;;
59052;SDS011;44843;44.728;10.396;2022-09-01T10:40:53;2.40;;;2.03;;
59052;SDS011;44843;44.728;10.396;2022-09-01T10:46:17;2.80;;;2.08;;
59052;SDS011;44843;44.728;10.396;2022-09-01T10:51:46;2.08;;;1.88;;
59052;SDS011;44843;44.728;10.396;2022-09-01T10:57:02;2.83;;;2.42;;
59052;SDS011;44843;44.728;10.396;2022-09-01T10:59:52;4.15;;;2.40;;
59052;SDS011;44843;44.728;10.396;2022-09-01T11:02:19;3.55;;;2.10;;
59052;SDS011;44843;44.728;10.396;2022-09-01T11:09:46;4.75;;;3.03;;
59052;SDS011;44843;44.728;10.396;2022-09-01T11:20:30;3.78;;;3.40;;
59052;SDS011;44843;44.728;10.396;2022-09-01T11:36:33;3.97;;;2.35;;
59052;SDS011;44843;44.728;10.396;2022-09-01T11:39:05;5.60;;;2.55;;
59052;SDS011;44843;44.728;10.396;2022-09-01T11:41:45;2.65;;;2.05;;
59052;SDS011;44843;44.728;10.396;2022-09-01T11:44:29;3.85;;;2.15;;
59052;SDS011;44843;44.728;10.396;2022-09-01T11:47:02;4.35;;;2.20;;
59052;SDS011;44843;44.728;10.396;2022-09-01T11:49:38;3.70;;;1.98;;
59052;SDS011;44843;44.728;10.396;2022-09-01T11:52:13;2.55;;;1.88;;
59052;SDS011;44843;44.728;10.396;2022-09-01T11:54:40;2.85;;;1.65;;
59052;SDS011;44843;44.728;10.396;2022-09-01T11:59:48;5.28;;;1.83;;
59052;SDS011;44843;44.728;10.396;2022-09-01T12:02:21;1.88;;;1.70;;
59052;SDS011;44843;44.728;10.396;2022-09-01T12:04:53;4.22;;;1.90;;
59052;SDS011;44843;44.728;10.396;2022-09-01T12:07:24;4.25;;;1.90;;
59052;SDS011;44843;44.728;10.396;2022-09-01T12:09:52;3.42;;;2.10;;
59052;SDS011;44843;44.728;10.396;2022-09-01T12:12:58;4.50;;;1.80;;
59052;SDS011;44843;44.728;10.396;2022-09-01T12:15:21;5.90;;;1.80;;
59052;SDS011;44843;44.728;10.396;2022-09-01T12:17:49;4.15;;;1.55;;
59052;SDS011;44843;44.728;10.396;2022-09-01T12:20:18;4.53;;;1.60;;
59052;SDS011;44843;44.728;10.396;2022-09-01T12:22:45;1.70;;;1.60;;
59052;SDS011;44843;44.728;10.396;2022-09-01T12:25:17;5.47;;;1.63;;
59052;SDS011;44843;44.728;10.396;2022-09-01T12:27:45;3.50;;;1.58;;
59052;SDS011;44843;44.728;10.396;2022-09-01T12:30:11;4.20;;;1.70;;
59052;SDS011;44843;44.728;10.396;2022-09-01T12:32:37;2.22;;;1.35;;
59052;SDS011;44843;44.728;10.396;2022-09-01T12:35:03;3.58;;;1.77;;
59052;SDS011;44843;44.728;10.396;2022-09-01T12:37:46;4.15;;;1.55;;
59052;SDS011;44843;44.728;10.396;2022-09-01T12:40:24;3.03;;;1.55;;
59052;SDS011;44843;44.728;10.396;2022-09-01T12:42:55;3.07;;;1.60;;
59052;SDS011;44843;44.728;10.396;2022-09-01T12:48:31;4.05;;;1.50;;
59052;SDS011;44843;44.728;10.396;2022-09-01T12:51:03;2.55;;;1.60;;
59052;SDS011;44843;44.728;10.396;2022-09-01T12:53:48;2.60;;;2.03;;
59052;SDS011;44843;44.728;10.396;2022-09-01T12:56:18;3.47;;;1.42;;
59052;SDS011;44843;44.728;10.396;2022-09-01T12:59:14;5.05;;;1.45;;
59052;SDS011;44843;44.728;10.396;2022-09-01T13:01:46;0.95;;;0.90;;
59052;SDS011;44843;44.728;10.396;2022-09-01T13:07:03;1.65;;;1.00;;
59052;SDS011;44843;44.728;10.396;2022-09-01T13:09:29;5.15;;;1.27;;
59052;SDS011;44843;44.728;10.396;2022-09-01T13:12:08;2.53;;;0.90;;
59052;SDS011;44843;44.728;10.396;2022-09-01T13:14:41;3.17;;;0.90;;
59052;SDS011;44843;44.728;10.396;2022-09-01T13:17:06;2.33;;;1.08;;
59052;SDS011;44843;44.728;10.396;2022-09-01T13:19:32;3.67;;;1.00;;
59052;SDS011;44843;44.728;10.396;2022-09-01T13:21:57;2.65;;;1.05;;
59052;SDS011;44843;44.728;10.396;2022-09-01T13:24:22;2.53;;;0.90;;
59052;SDS011;44843;44.728;10.396;2022-09-01T13:26:48;2.45;;;1.00;;
59052;SDS011;44843;44.728;10.396;2022-09-01T13:29:21;2.08;;;1.05;;
59052;SDS011;44843;44.728;10.396;2022-09-01T13:31:48;2.75;;;0.93;;
59052;SDS011;44843;44.728;10.396;2022-09-01T13:34:13;3.05;;;1.08;;
59052;SDS011;44843;44.728;10.396;2022-09-01T13:36:39;2.05;;;1.00;;
59052;SDS011;44843;44.728;10.396;2022-09-01T13:39:04;1.58;;;1.17;;
59052;SDS011;44843;44.728;10.396;2022-09-01T13:41:30;4.65;;;1.20;;
59052;SDS011;44843;44.728;10.396;2022-09-01T13:43:55;2.75;;;1.00;;
59052;SDS011;44843;44.728;10.396;2022-09-01T13:46:21;2.65;;;1.10;;
59052;SDS011;44843;44.728;10.396;2022-09-01T13:48:47;3.83;;;1.40;;
59052;SDS011;44843;44.728;10.396;2022-09-01T13:51:22;1.70;;;1.08;;
59052;SDS011;44843;44.728;10.396;2022-09-01T13:53:50;6.95;;;0.95;;
59052;SDS011;44843;44.728;10.396;2022-09-01T13:56:16;2.53;;;1.02;;
59052;SDS011;44843;44.728;10.396;2022-09-01T13:58:42;2.70;;;1.08;;
59052;SDS011;44843;44.728;10.396;2022-09-01T14:01:07;1.13;;;0.80;;
59052;SDS011;44843;44.728;10.396;2022-09-01T14:03:32;5.85;;;1.25;;
59052;SDS011;44843;44.728;10.396;2022-09-01T14:05:58;3.75;;;1.05;;
59052;SDS011;44843;44.728;10.396;2022-09-01T14:08:23;1.75;;;1.13;;
59052;SDS011;44843;44.728;10.396;2022-09-01T14:10:50;2.30;;;1.10;;
59052;SDS011;44843;44.728;10.396;2022-09-01T14:13:18;4.88;;;1.02;;
59052;SDS011;44843;44.728;10.396;2022-09-01T14:15:48;2.90;;;0.90;;
59052;SDS011;44843;44.728;10.396;2022-09-01T14:18:14;4.40;;;1.05;;
59052;SDS011;44843;44.728;10.396;2022-09-01T14:20:42;3.05;;;0.98;;
59052;SDS011;44843;44.728;10.396;2022-09-01T14:23:09;1.38;;;1.23;;
59052;SDS011;44843;44.728;10.396;2022-09-01T14:25:36;2.78;;;1.00;;
59052;SDS011;44843;44.728;10.396;2022-09-01T14:28:06;4.07;;;1.58;;
59052;SDS011;44843;44.728;10.396;2022-09-01T14:30:31;3.20;;;1.02;;
59052;SDS011;44843;44.728;10.396;2022-09-01T14:32:58;1.15;;;0.90;;
59052;SDS011;44843;44.728;10.396;2022-09-01T14:35:25;3.47;;;1.20;;
59052;SDS011;44843;44.728;10.396;2022-09-01T14:37:52;1.20;;;0.90;;
59052;SDS011;44843;44.728;10.396;2022-09-01T14:40:19;2.85;;;1.10;;
59052;SDS011;44843;44.728;10.396;2022-09-01T14:42:47;2.05;;;1.20;;
59052;SDS011;44843;44.728;10.396;2022-09-01T14:45:17;2.97;;;1.15;;
59052;SDS011;44843;44.728;10.396;2022-09-01T14:47:44;2.55;;;1.15;;
59052;SDS011;44843;44.728;10.396;2022-09-01T14:50:16;2.22;;;1.98;;
59052;SDS011;44843;44.728;10.396;2022-09-01T14:52:43;4.43;;;1.33;;
59052;SDS011;44843;44.728;10.396;2022-09-01T14:55:09;4.72;;;1.85;;
59052;SDS011;44843;44.728;10.396;2022-09-01T14:57:35;2.78;;;1.00;;
59052;SDS011;44843;44.728;10.396;2022-09-01T15:00:00;1.80;;;0.98;;
59052;SDS011;44843;44.728;10.396;2022-09-01T15:02:26;3.75;;;1.30;;
59052;SDS011;44843;44.728;10.396;2022-09-01T15:04:53;6.43;;;1.10;;
59052;SDS011;44843;44.728;10.396;2022-09-01T15:07:18;2.30;;;1.05;;
59052;SDS011;44843;44.728;10.396;2022-09-01T15:09:44;3.50;;;1.05;;
59052;SDS011;44843;44.728;10.396;2022-09-01T15:12:09;1.55;;;1.10;;
59052;SDS011;44843;44.728;10.396;2022-09-01T15:14:35;2.03;;;1.30;;
59052;SDS011;44843;44.728;10.396;2022-09-01T15:17:01;1.92;;;1.42;;
59052;SDS011;44843;44.728;10.396;2022-09-01T15:19:27;2.08;;;1.20;;
59052;SDS011;44843;44.728;10.396;2022-09-01T15:21:53;4.68;;;1.30;;
59052;SDS011;44843;44.728;10.396;2022-09-01T15:24:18;2.38;;;0.90;;
59052;SDS011;44843;44.728;10.396;2022-09-01T15:26:44;2.05;;;0.98;;
59052;SDS011;44843;44.728;10.396;2022-09-01T15:29:10;3.63;;;1.10;;
59052;SDS011;44843;44.728;10.396;2022-09-01T15:31:39;4.97;;;1.30;;
59052;SDS011;44843;44.728;10.396;2022-09-01T15:34:09;2.97;;;1.00;;
59052;SDS011;44843;44.728;10.396;2022-09-01T15:36:36;3.58;;;1.20;;
59052;SDS011;44843;44.728;10.396;2022-09-01T15:39:04;4.40;;;0.95;;
59052;SDS011;44843;44.728;10.396;2022-09-01T15:41:30;1.27;;;1.00;;
59052;SDS011;44843;44.728;10.396;2022-09-01T15:43:57;3.08;;;0.90;;